sensor_id;sensor_type;location;lat;lon;timestamp;P1;durP1;ratioP1;P2;durP2;ratioP2
36411;SDS011;22445;52.100;5.176;2023-11-18T00:02:23;42.75;;;23.02;;
36411;SDS011;22445;52.100;5.176;2023-11-18T00:04:50;45.10;;;23.58;;
36411;SDS011;22445;52.100;5.176;2023-11-18T00:07:16;42.08;;;23.42;;
36411;SDS011;22445;52.100;5.176;2023-11-18T00:09:42;43.25;;;22.42;;
36411;SDS011;22445;52.100;5.176;2023-11-18T00:12:11;45.63;;;23.63;;
36411;SDS011;22445;52.100;5.176;2023-11-18T00:14:37;52.53;;;26.08;;
36411;SDS011;22445;52.100;5.176;2023-11-18T00:17:03;58.15;;;28.30;;
36411;SDS011;22445;52.100;5.176;2023-11-18T00:19:29;51.17;;;25.05;;
36411;SDS011;22445;52.100;5.176;2023-11-18T00:21:55;53.42;;;26.50;;
36411;SDS011;22445;52.100;5.176;2023-11-18T00:24:21;57.78;;;26.35;;
36411;SDS011;22445;52.100;5.176;2023-11-18T00:26:46;61.08;;;27.98;;
36411;SDS011;22445;52.100;5.176;2023-11-18T00:29:12;60.33;;;26.92;;
36411;SDS011;22445;52.100;5.176;2023-11-18T00:31:38;58.13;;;28.00;;
36411;SDS011;22445;52.100;5.176;2023-11-18T00:34:03;56.70;;;28.13;;
36411;SDS011;22445;52.100;5.176;2023-11-18T00:36:29;64.38;;;28.42;;
36411;SDS011;22445;52.100;5.176;2023-11-18T00:38:55;68.32;;;29.67;;
36411;SDS011;22445;52.100;5.176;2023-11-18T00:41:20;56.00;;;27.23;;
36411;SDS011;22445;52.100;5.176;2023-11-18T00:43:46;60.97;;;28.70;;
36411;SDS011;22445;52.100;5.176;2023-11-18T00:46:12;62.78;;;29.85;;
36411;SDS011;22445;52.100;5.176;2023-11-18T00:48:38;57.90;;;28.05;;
36411;SDS011;22445;52.100;5.176;2023-11-18T00:51:04;62.13;;;31.00;;
36411;SDS011;22445;52.100;5.176;2023-11-18T00:53:31;63.75;;;30.25;;
36411;SDS011;22445;52.100;5.176;2023-11-18T00:55:56;57.58;;;28.80;;
36411;SDS011;22445;52.100;5.176;2023-11-18T00:58:22;61.75;;;28.73;;
36411;SDS011;22445;52.100;5.176;2023-11-18T01:00:48;62.35;;;29.90;;
36411;SDS011;22445;52.100;5.176;2023-11-18T01:03:13;65.22;;;29.23;;
36411;SDS011;22445;52.100;5.176;2023-11-18T01:05:39;55.50;;;29.77;;
36411;SDS011;22445;52.100;5.176;2023-11-18T01:08:05;65.75;;;30.25;;
36411;SDS011;22445;52.100;5.176;2023-11-18T01:10:30;63.88;;;30.10;;
36411;SDS011;22445;52.100;5.176;2023-11-18T01:12:56;68.63;;;30.50;;
36411;SDS011;22445;52.100;5.176;2023-11-18T01:15:23;59.67;;;27.92;;
36411;SDS011;22445;52.100;5.176;2023-11-18T01:17:49;59.85;;;28.23;;
36411;SDS011;22445;52.100;5.176;2023-11-18T01:20:14;62.90;;;28.90;;
36411;SDS011;22445;52.100;5.176;2023-11-18T01:22:46;59.38;;;26.95;;
36411;SDS011;22445;52.100;5.176;2023-11-18T01:25:14;64.25;;;29.27;;
36411;SDS011;22445;52.100;5.176;2023-11-18T01:27:42;64.85;;;30.45;;
36411;SDS011;22445;52.100;5.176;2023-11-18T01:30:07;62.17;;;30.27;;
36411;SDS011;22445;52.100;5.176;2023-11-18T01:32:35;61.53;;;28.70;;
36411;SDS011;22445;52.100;5.176;2023-11-18T01:35:00;55.47;;;28.13;;
36411;SDS011;22445;52.100;5.176;2023-11-18T01:37:26;63.60;;;30.42;;
36411;SDS011;22445;52.100;5.176;2023-11-18T01:39:51;53.25;;;27.90;;
36411;SDS011;22445;52.100;5.176;2023-11-18T01:42:17;66.75;;;29.40;;
36411;SDS011;22445;52.100;5.176;2023-11-18T01:44:42;61.83;;;29.10;;
36411;SDS011;22445;52.100;5.176;2023-11-18T01:47:08;58.47;;;30.83;;
36411;SDS011;22445;52.100;5.176;2023-11-18T01:49:37;60.80;;;30.65;;
36411;SDS011;22445;52.100;5.176;2023-11-18T01:52:05;65.88;;;30.15;;
36411;SDS011;22445;52.100;5.176;2023-11-18T01:54:33;63.30;;;29.00;;
36411;SDS011;22445;52.100;5.176;2023-11-18T01:57:00;61.80;;;29.30;;
36411;SDS011;22445;52.100;5.176;2023-11-18T01:59:30;59.50;;;29.92;;
36411;SDS011;22445;52.100;5.176;2023-11-18T02:01:58;58.95;;;29.70;;
36411;SDS011;22445;52.100;5.176;2023-11-18T02:04:25;59.83;;;30.38;;
36411;SDS011;22445;52.100;5.176;2023-11-18T02:06:51;60.35;;;29.88;;
36411;SDS011;22445;52.100;5.176;2023-11-18T02:09:18;67.25;;;30.55;;
36411;SDS011;22445;52.100;5.176;2023-11-18T02:12:28;62.95;;;29.88;;
36411;SDS011;22445;52.100;5.176;2023-11-18T02:14:59;57.50;;;29.45;;
36411;SDS011;22445;52.100;5.176;2023-11-18T02:17:25;56.72;;;28.00;;
36411;SDS011;22445;52.100;5.176;2023-11-18T02:19:53;64.93;;;29.58;;
36411;SDS011;22445;52.100;5.176;2023-11-18T02:22:21;55.45;;;29.13;;
36411;SDS011;22445;52.100;5.176;2023-11-18T02:24:47;63.35;;;30.08;;
36411;SDS011;22445;52.100;5.176;2023-11-18T02:27:13;56.05;;;28.63;;
36411;SDS011;22445;52.100;5.176;2023-11-18T02:29:40;59.03;;;29.88;;
36411;SDS011;22445;52.100;5.176;2023-11-18T02:35:17;68.68;;;30.13;;
36411;SDS011;22445;52.100;5.176;2023-11-18T02:37:46;63.08;;;30.13;;
36411;SDS011;22445;52.100;5.176;2023-11-18T02:40:15;61.15;;;29.23;;
36411;SDS011;22445;52.100;5.176;2023-11-18T02:42:45;61.92;;;28.70;;
36411;SDS011;22445;52.100;5.176;2023-11-18T02:45:11;51.60;;;27.25;;
36411;SDS011;22445;52.100;5.176;2023-11-18T02:47:43;59.50;;;27.88;;
36411;SDS011;22445;52.100;5.176;2023-11-18T02:50:09;61.53;;;29.05;;
36411;SDS011;22445;52.100;5.176;2023-11-18T02:52:36;63.05;;;28.83;;
36411;SDS011;22445;52.100;5.176;2023-11-18T02:55:06;62.35;;;29.48;;
36411;SDS011;22445;52.100;5.176;2023-11-18T02:57:33;64.20;;;28.02;;
36411;SDS011;22445;52.100;5.176;2023-11-18T02:59:58;60.55;;;30.17;;
36411;SDS011;22445;52.100;5.176;2023-11-18T03:02:28;52.75;;;28.20;;
36411;SDS011;22445;52.100;5.176;2023-11-18T03:04:56;55.10;;;30.08;;
36411;SDS011;22445;52.100;5.176;2023-11-18T03:07:23;66.05;;;31.05;;
36411;SDS011;22445;52.100;5.176;2023-11-18T03:09:48;58.30;;;30.08;;
36411;SDS011;22445;52.100;5.176;2023-11-18T03:12:14;66.07;;;30.15;;
36411;SDS011;22445;52.100;5.176;2023-11-18T03:14:41;61.67;;;29.17;;
36411;SDS011;22445;52.100;5.176;2023-11-18T03:17:07;68.45;;;31.10;;
36411;SDS011;22445;52.100;5.176;2023-11-18T03:19:35;64.45;;;29.13;;
36411;SDS011;22445;52.100;5.176;2023-11-18T03:22:01;55.85;;;30.08;;
36411;SDS011;22445;52.100;5.176;2023-11-18T03:24:28;56.50;;;29.13;;
36411;SDS011;22445;52.100;5.176;2023-11-18T03:26:56;71.35;;;32.28;;
36411;SDS011;22445;52.100;5.176;2023-11-18T03:29:22;60.47;;;31.25;;
36411;SDS011;22445;52.100;5.176;2023-11-18T03:31:48;65.22;;;33.05;;
36411;SDS011;22445;52.100;5.176;2023-11-18T03:34:18;66.85;;;32.35;;
36411;SDS011;22445;52.100;5.176;2023-11-18T03:36:47;60.35;;;30.75;;
36411;SDS011;22445;52.100;5.176;2023-11-18T03:39:13;67.43;;;31.98;;
36411;SDS011;22445;52.100;5.176;2023-11-18T03:41:39;63.45;;;32.60;;
36411;SDS011;22445;52.100;5.176;2023-11-18T03:44:09;72.20;;;31.67;;
36411;SDS011;22445;52.100;5.176;2023-11-18T03:46:36;60.85;;;32.05;;
36411;SDS011;22445;52.100;5.176;2023-11-18T03:49:02;60.95;;;31.52;;
36411;SDS011;22445;52.100;5.176;2023-11-18T03:51:28;65.18;;;32.05;;
36411;SDS011;22445;52.100;5.176;2023-11-18T03:53:54;64.40;;;32.47;;
36411;SDS011;22445;52.100;5.176;2023-11-18T03:56:20;67.57;;;34.90;;
36411;SDS011;22445;52.100;5.176;2023-11-18T03:58:46;71.50;;;33.65;;
36411;SDS011;22445;52.100;5.176;2023-11-18T04:01:21;65.88;;;33.17;;
36411;SDS011;22445;52.100;5.176;2023-11-18T04:03:47;65.75;;;33.20;;
36411;SDS011;22445;52.100;5.176;2023-11-18T04:06:12;64.90;;;33.40;;
36411;SDS011;22445;52.100;5.176;2023-11-18T04:08:42;61.25;;;32.95;;
36411;SDS011;22445;52.100;5.176;2023-11-18T04:11:09;61.90;;;32.17;;
36411;SDS011;22445;52.100;5.176;2023-11-18T04:13:34;62.72;;;32.90;;
36411;SDS011;22445;52.100;5.176;2023-11-18T04:16:00;61.70;;;32.55;;
36411;SDS011;22445;52.100;5.176;2023-11-18T04:18:26;66.10;;;33.53;;
36411;SDS011;22445;52.100;5.176;2023-11-18T04:20:51;70.03;;;33.75;;
36411;SDS011;22445;52.100;5.176;2023-11-18T04:23:18;61.08;;;31.77;;
36411;SDS011;22445;52.100;5.176;2023-11-18T04:25:43;59.97;;;31.98;;
36411;SDS011;22445;52.100;5.176;2023-11-18T04:28:09;66.55;;;33.15;;
36411;SDS011;22445;52.100;5.176;2023-11-18T04:30:35;60.72;;;32.83;;
36411;SDS011;22445;52.100;5.176;2023-11-18T04:33:01;60.72;;;33.72;;
36411;SDS011;22445;52.100;5.176;2023-11-18T04:35:26;63.50;;;32.97;;
36411;SDS011;22445;52.100;5.176;2023-11-18T04:37:52;60.63;;;32.67;;
36411;SDS011;22445;52.100;5.176;2023-11-18T04:40:18;66.07;;;33.58;;
36411;SDS011;22445;52.100;5.176;2023-11-18T04:42:44;65.25;;;33.63;;
36411;SDS011;22445;52.100;5.176;2023-11-18T04:45:09;63.30;;;32.78;;
36411;SDS011;22445;52.100;5.176;2023-11-18T04:47:36;63.97;;;34.35;;
36411;SDS011;22445;52.100;5.176;2023-11-18T04:50:02;69.30;;;35.55;;
36411;SDS011;22445;52.100;5.176;2023-11-18T04:52:29;67.07;;;35.50;;
36411;SDS011;22445;52.100;5.176;2023-11-18T04:54:57;59.10;;;33.83;;
36411;SDS011;22445;52.100;5.176;2023-11-18T04:57:25;65.85;;;35.42;;
36411;SDS011;22445;52.100;5.176;2023-11-18T04:59:50;63.55;;;35.78;;
36411;SDS011;22445;52.100;5.176;2023-11-18T05:02:16;65.88;;;33.65;;
36411;SDS011;22445;52.100;5.176;2023-11-18T05:04:42;69.90;;;34.17;;
36411;SDS011;22445;52.100;5.176;2023-11-18T05:07:07;74.15;;;33.80;;
36411;SDS011;22445;52.100;5.176;2023-11-18T05:09:33;69.32;;;34.55;;
36411;SDS011;22445;52.100;5.176;2023-11-18T05:11:59;68.30;;;34.67;;
36411;SDS011;22445;52.100;5.176;2023-11-18T05:14:25;60.60;;;34.30;;
36411;SDS011;22445;52.100;5.176;2023-11-18T05:16:52;61.70;;;34.00;;
36411;SDS011;22445;52.100;5.176;2023-11-18T05:19:17;66.40;;;34.20;;
36411;SDS011;22445;52.100;5.176;2023-11-18T05:21:43;76.00;;;35.55;;
36411;SDS011;22445;52.100;5.176;2023-11-18T05:24:09;65.85;;;36.28;;
36411;SDS011;22445;52.100;5.176;2023-11-18T05:26:34;71.50;;;36.35;;
36411;SDS011;22445;52.100;5.176;2023-11-18T05:29:00;63.25;;;34.08;;
36411;SDS011;22445;52.100;5.176;2023-11-18T05:31:26;64.57;;;35.65;;
36411;SDS011;22445;52.100;5.176;2023-11-18T05:33:53;66.25;;;36.53;;
36411;SDS011;22445;52.100;5.176;2023-11-18T05:36:20;58.92;;;34.33;;
36411;SDS011;22445;52.100;5.176;2023-11-18T05:38:52;62.50;;;33.15;;
36411;SDS011;22445;52.100;5.176;2023-11-18T05:41:19;62.28;;;33.10;;
36411;SDS011;22445;52.100;5.176;2023-11-18T05:43:53;67.78;;;33.53;;
36411;SDS011;22445;52.100;5.176;2023-11-18T05:46:22;74.75;;;33.78;;
36411;SDS011;22445;52.100;5.176;2023-11-18T05:48:54;70.93;;;34.53;;
36411;SDS011;22445;52.100;5.176;2023-11-18T05:51:21;64.72;;;34.08;;
36411;SDS011;22445;52.100;5.176;2023-11-18T05:53:48;66.03;;;35.42;;
36411;SDS011;22445;52.100;5.176;2023-11-18T05:56:14;66.22;;;33.75;;
36411;SDS011;22445;52.100;5.176;2023-11-18T05:58:43;72.88;;;32.05;;
36411;SDS011;22445;52.100;5.176;2023-11-18T06:01:09;64.93;;;33.00;;
36411;SDS011;22445;52.100;5.176;2023-11-18T06:03:36;70.43;;;33.97;;
36411;SDS011;22445;52.100;5.176;2023-11-18T06:06:15;64.05;;;32.67;;
36411;SDS011;22445;52.100;5.176;2023-11-18T06:08:41;57.75;;;28.05;;
36411;SDS011;22445;52.100;5.176;2023-11-18T06:11:09;63.30;;;31.65;;
36411;SDS011;22445;52.100;5.176;2023-11-18T06:13:39;61.08;;;31.50;;
36411;SDS011;22445;52.100;5.176;2023-11-18T06:16:14;64.63;;;30.75;;
36411;SDS011;22445;52.100;5.176;2023-11-18T06:18:47;61.72;;;32.08;;
36411;SDS011;22445;52.100;5.176;2023-11-18T06:21:14;62.05;;;30.33;;
36411;SDS011;22445;52.100;5.176;2023-11-18T06:23:42;57.88;;;30.35;;
36411;SDS011;22445;52.100;5.176;2023-11-18T06:26:08;53.85;;;28.70;;
36411;SDS011;22445;52.100;5.176;2023-11-18T06:28:39;56.15;;;29.40;;
36411;SDS011;22445;52.100;5.176;2023-11-18T06:31:06;63.95;;;28.00;;
36411;SDS011;22445;52.100;5.176;2023-11-18T06:33:37;50.25;;;28.70;;
36411;SDS011;22445;52.100;5.176;2023-11-18T06:36:07;55.33;;;27.13;;
36411;SDS011;22445;52.100;5.176;2023-11-18T06:38:59;53.25;;;26.90;;
36411;SDS011;22445;52.100;5.176;2023-11-18T06:41:25;56.72;;;26.45;;
36411;SDS011;22445;52.100;5.176;2023-11-18T06:43:58;45.10;;;26.48;;
36411;SDS011;22445;52.100;5.176;2023-11-18T06:46:27;49.42;;;26.27;;
36411;SDS011;22445;52.100;5.176;2023-11-18T06:49:02;48.22;;;24.90;;
36411;SDS011;22445;52.100;5.176;2023-11-18T06:51:33;50.22;;;25.95;;
36411;SDS011;22445;52.100;5.176;2023-11-18T06:54:06;51.83;;;24.33;;
36411;SDS011;22445;52.100;5.176;2023-11-18T06:56:37;44.05;;;23.88;;
36411;SDS011;22445;52.100;5.176;2023-11-18T06:59:08;50.47;;;24.02;;
36411;SDS011;22445;52.100;5.176;2023-11-18T07:01:35;40.63;;;23.13;;
36411;SDS011;22445;52.100;5.176;2023-11-18T07:04:01;49.10;;;25.05;;
36411;SDS011;22445;52.100;5.176;2023-11-18T07:06:26;40.92;;;21.50;;
36411;SDS011;22445;52.100;5.176;2023-11-18T07:08:52;36.88;;;20.75;;
36411;SDS011;22445;52.100;5.176;2023-11-18T07:11:20;37.85;;;23.00;;
36411;SDS011;22445;52.100;5.176;2023-11-18T07:13:46;40.17;;;20.65;;
36411;SDS011;22445;52.100;5.176;2023-11-18T07:16:13;35.47;;;20.13;;
36411;SDS011;22445;52.100;5.176;2023-11-18T07:18:39;37.55;;;20.80;;
36411;SDS011;22445;52.100;5.176;2023-11-18T07:21:07;37.30;;;20.52;;
36411;SDS011;22445;52.100;5.176;2023-11-18T07:23:34;39.05;;;19.63;;
36411;SDS011;22445;52.100;5.176;2023-11-18T07:26:00;41.92;;;21.27;;
36411;SDS011;22445;52.100;5.176;2023-11-18T07:28:26;42.75;;;22.00;;
36411;SDS011;22445;52.100;5.176;2023-11-18T07:30:52;39.08;;;19.95;;
36411;SDS011;22445;52.100;5.176;2023-11-18T07:33:19;41.22;;;20.08;;
36411;SDS011;22445;52.100;5.176;2023-11-18T07:35:45;36.17;;;20.90;;
36411;SDS011;22445;52.100;5.176;2023-11-18T07:38:12;42.80;;;19.20;;
36411;SDS011;22445;52.100;5.176;2023-11-18T07:40:38;40.97;;;20.27;;
36411;SDS011;22445;52.100;5.176;2023-11-18T07:43:10;33.78;;;19.95;;
36411;SDS011;22445;52.100;5.176;2023-11-18T07:45:36;38.50;;;19.92;;
36411;SDS011;22445;52.100;5.176;2023-11-18T07:48:09;28.58;;;18.67;;
36411;SDS011;22445;52.100;5.176;2023-11-18T07:50:37;37.92;;;17.90;;
36411;SDS011;22445;52.100;5.176;2023-11-18T07:53:05;32.85;;;18.83;;
36411;SDS011;22445;52.100;5.176;2023-11-18T07:55:32;32.70;;;17.35;;
36411;SDS011;22445;52.100;5.176;2023-11-18T07:58:02;28.35;;;17.52;;
36411;SDS011;22445;52.100;5.176;2023-11-18T08:00:29;29.55;;;17.70;;
36411;SDS011;22445;52.100;5.176;2023-11-18T08:02:58;35.53;;;17.10;;
36411;SDS011;22445;52.100;5.176;2023-11-18T08:05:26;29.95;;;15.85;;
36411;SDS011;22445;52.100;5.176;2023-11-18T08:07:53;34.50;;;16.00;;
36411;SDS011;22445;52.100;5.176;2023-11-18T08:10:19;25.48;;;14.95;;
36411;SDS011;22445;52.100;5.176;2023-11-18T08:12:47;27.27;;;16.30;;
36411;SDS011;22445;52.100;5.176;2023-11-18T08:15:12;29.52;;;15.88;;
36411;SDS011;22445;52.100;5.176;2023-11-18T08:17:39;27.52;;;15.40;;
36411;SDS011;22445;52.100;5.176;2023-11-18T08:20:04;23.13;;;15.25;;
36411;SDS011;22445;52.100;5.176;2023-11-18T08:22:40;22.88;;;11.18;;
36411;SDS011;22445;52.100;5.176;2023-11-18T08:25:11;19.98;;;9.52;;
36411;SDS011;22445;52.100;5.176;2023-11-18T08:27:40;28.02;;;10.77;;
36411;SDS011;22445;52.100;5.176;2023-11-18T08:30:07;13.35;;;6.85;;
36411;SDS011;22445;52.100;5.176;2023-11-18T08:32:39;12.77;;;8.30;;
36411;SDS011;22445;52.100;5.176;2023-11-18T08:35:09;17.65;;;8.60;;
36411;SDS011;22445;52.100;5.176;2023-11-18T08:37:36;19.75;;;8.90;;
36411;SDS011;22445;52.100;5.176;2023-11-18T08:40:02;17.73;;;7.93;;
36411;SDS011;22445;52.100;5.176;2023-11-18T08:42:29;15.07;;;8.00;;
36411;SDS011;22445;52.100;5.176;2023-11-18T08:44:57;14.88;;;8.27;;
36411;SDS011;22445;52.100;5.176;2023-11-18T08:47:24;18.55;;;8.70;;
36411;SDS011;22445;52.100;5.176;2023-11-18T08:49:50;16.88;;;7.82;;
36411;SDS011;22445;52.100;5.176;2023-11-18T08:52:16;23.38;;;9.18;;
36411;SDS011;22445;52.100;5.176;2023-11-18T08:54:43;21.90;;;12.45;;
36411;SDS011;22445;52.100;5.176;2023-11-18T08:57:29;15.40;;;8.30;;
36411;SDS011;22445;52.100;5.176;2023-11-18T09:00:16;17.38;;;9.45;;
36411;SDS011;22445;52.100;5.176;2023-11-18T09:03:02;15.60;;;9.13;;
36411;SDS011;22445;52.100;5.176;2023-11-18T09:05:31;14.35;;;7.25;;
36411;SDS011;22445;52.100;5.176;2023-11-18T09:08:04;18.75;;;8.82;;
36411;SDS011;22445;52.100;5.176;2023-11-18T09:10:31;16.13;;;8.52;;
36411;SDS011;22445;52.100;5.176;2023-11-18T09:12:57;22.10;;;12.52;;
36411;SDS011;22445;52.100;5.176;2023-11-18T09:15:23;17.58;;;12.48;;
36411;SDS011;22445;52.100;5.176;2023-11-18T09:17:49;23.20;;;12.77;;
36411;SDS011;22445;52.100;5.176;2023-11-18T09:20:14;23.25;;;12.68;;
36411;SDS011;22445;52.100;5.176;2023-11-18T09:22:47;18.95;;;13.15;;
36411;SDS011;22445;52.100;5.176;2023-11-18T09:25:14;17.10;;;12.07;;
36411;SDS011;22445;52.100;5.176;2023-11-18T09:27:41;24.02;;;12.60;;
36411;SDS011;22445;52.100;5.176;2023-11-18T09:30:07;24.95;;;12.63;;
36411;SDS011;22445;52.100;5.176;2023-11-18T09:32:41;16.45;;;9.95;;
36411;SDS011;22445;52.100;5.176;2023-11-18T09:35:07;25.08;;;10.57;;
36411;SDS011;22445;52.100;5.176;2023-11-18T09:37:35;12.88;;;6.88;;
36411;SDS011;22445;52.100;5.176;2023-11-18T09:40:02;16.85;;;6.15;;
36411;SDS011;22445;52.100;5.176;2023-11-18T09:42:39;10.68;;;6.10;;
36411;SDS011;22445;52.100;5.176;2023-11-18T09:45:08;12.05;;;7.05;;
36411;SDS011;22445;52.100;5.176;2023-11-18T09:47:42;14.93;;;6.07;;
36411;SDS011;22445;52.100;5.176;2023-11-18T09:50:08;10.27;;;5.75;;
36411;SDS011;22445;52.100;5.176;2023-11-18T09:52:37;15.80;;;6.75;;
36411;SDS011;22445;52.100;5.176;2023-11-18T09:55:11;8.88;;;5.93;;
36411;SDS011;22445;52.100;5.176;2023-11-18T09:57:46;18.98;;;7.07;;
36411;SDS011;22445;52.100;5.176;2023-11-18T10:00:22;10.73;;;5.30;;
36411;SDS011;22445;52.100;5.176;2023-11-18T10:02:58;9.77;;;4.82;;
36411;SDS011;22445;52.100;5.176;2023-11-18T10:05:26;10.15;;;5.10;;
36411;SDS011;22445;52.100;5.176;2023-11-18T10:07:53;15.48;;;6.15;;
36411;SDS011;22445;52.100;5.176;2023-11-18T10:10:19;9.63;;;5.70;;
36411;SDS011;22445;52.100;5.176;2023-11-18T10:12:50;11.70;;;5.55;;
36411;SDS011;22445;52.100;5.176;2023-11-18T10:15:23;9.38;;;5.05;;
36411;SDS011;22445;52.100;5.176;2023-11-18T10:17:50;20.73;;;4.65;;
36411;SDS011;22445;52.100;5.176;2023-11-18T10:23:13;9.10;;;4.60;;
36411;SDS011;22445;52.100;5.176;2023-11-18T10:28:33;6.60;;;4.40;;
36411;SDS011;22445;52.100;5.176;2023-11-18T10:31:05;15.02;;;4.95;;
36411;SDS011;22445;52.100;5.176;2023-11-18T10:36:18;9.10;;;5.05;;
36411;SDS011;22445;52.100;5.176;2023-11-18T10:38:47;5.30;;;3.42;;
36411;SDS011;22445;52.100;5.176;2023-11-18T10:41:20;14.32;;;4.05;;
36411;SDS011;22445;52.100;5.176;2023-11-18T10:43:46;11.05;;;4.03;;
36411;SDS011;22445;52.100;5.176;2023-11-18T10:46:15;6.13;;;3.80;;
36411;SDS011;22445;52.100;5.176;2023-11-18T10:48:42;9.63;;;3.47;;
36411;SDS011;22445;52.100;5.176;2023-11-18T10:51:13;9.48;;;4.07;;
36411;SDS011;22445;52.100;5.176;2023-11-18T10:53:41;18.70;;;7.28;;
36411;SDS011;22445;52.100;5.176;2023-11-18T10:56:29;13.82;;;6.65;;
36411;SDS011;22445;52.100;5.176;2023-11-18T10:59:06;10.95;;;6.25;;
36411;SDS011;22445;52.100;5.176;2023-11-18T11:01:35;14.85;;;6.70;;
36411;SDS011;22445;52.100;5.176;2023-11-18T11:04:08;8.75;;;3.60;;
36411;SDS011;22445;52.100;5.176;2023-11-18T11:06:36;10.35;;;3.33;;
36411;SDS011;22445;52.100;5.176;2023-11-18T11:09:08;8.85;;;3.28;;
36411;SDS011;22445;52.100;5.176;2023-11-18T11:12:04;8.57;;;3.13;;
36411;SDS011;22445;52.100;5.176;2023-11-18T11:14:33;9.90;;;3.65;;
36411;SDS011;22445;52.100;5.176;2023-11-18T11:17:05;5.78;;;2.88;;
36411;SDS011;22445;52.100;5.176;2023-11-18T11:20:22;7.82;;;2.90;;
36411;SDS011;22445;52.100;5.176;2023-11-18T11:31:42;11.50;;;4.85;;
36411;SDS011;22445;52.100;5.176;2023-11-18T11:34:09;5.20;;;2.78;;
36411;SDS011;22445;52.100;5.176;2023-11-18T11:36:49;7.93;;;2.78;;
36411;SDS011;22445;52.100;5.176;2023-11-18T11:39:18;8.15;;;4.55;;
36411;SDS011;22445;52.100;5.176;2023-11-18T11:41:51;8.55;;;3.38;;
36411;SDS011;22445;52.100;5.176;2023-11-18T11:44:19;5.82;;;3.45;;
36411;SDS011;22445;52.100;5.176;2023-11-18T11:46:48;6.38;;;2.97;;
36411;SDS011;22445;52.100;5.176;2023-11-18T11:49:19;3.85;;;1.67;;
36411;SDS011;22445;52.100;5.176;2023-11-18T11:55:12;9.60;;;4.35;;
36411;SDS011;22445;52.100;5.176;2023-11-18T11:57:50;7.28;;;2.38;;
36411;SDS011;22445;52.100;5.176;2023-11-18T12:00:18;9.52;;;5.47;;
36411;SDS011;22445;52.100;5.176;2023-11-18T12:02:48;11.68;;;4.72;;
36411;SDS011;22445;52.100;5.176;2023-11-18T12:05:17;6.22;;;2.47;;
36411;SDS011;22445;52.100;5.176;2023-11-18T12:07:50;7.93;;;4.22;;
36411;SDS011;22445;52.100;5.176;2023-11-18T12:10:19;5.05;;;3.38;;
36411;SDS011;22445;52.100;5.176;2023-11-18T12:12:48;6.97;;;3.35;;
36411;SDS011;22445;52.100;5.176;2023-11-18T12:15:14;7.80;;;3.85;;
36411;SDS011;22445;52.100;5.176;2023-11-18T12:20:38;9.70;;;2.33;;
36411;SDS011;22445;52.100;5.176;2023-11-18T12:23:07;14.13;;;2.70;;
36411;SDS011;22445;52.100;5.176;2023-11-18T12:25:42;4.53;;;2.40;;
36411;SDS011;22445;52.100;5.176;2023-11-18T12:28:08;6.47;;;3.10;;
36411;SDS011;22445;52.100;5.176;2023-11-18T12:36:49;4.38;;;2.47;;
36411;SDS011;22445;52.100;5.176;2023-11-18T12:39:42;7.53;;;4.65;;
36411;SDS011;22445;52.100;5.176;2023-11-18T12:48:27;5.60;;;2.50;;
36411;SDS011;22445;52.100;5.176;2023-11-18T12:50:57;4.88;;;2.83;;
36411;SDS011;22445;52.100;5.176;2023-11-18T12:53:25;10.18;;;4.10;;
36411;SDS011;22445;52.100;5.176;2023-11-18T12:55:52;12.02;;;4.93;;
36411;SDS011;22445;52.100;5.176;2023-11-18T12:58:17;5.80;;;2.88;;
36411;SDS011;22445;52.100;5.176;2023-11-18T13:00:43;4.40;;;3.10;;
36411;SDS011;22445;52.100;5.176;2023-11-18T13:03:11;3.85;;;2.30;;
36411;SDS011;22445;52.100;5.176;2023-11-18T13:05:40;4.35;;;3.15;;
36411;SDS011;22445;52.100;5.176;2023-11-18T13:08:08;8.40;;;3.97;;
36411;SDS011;22445;52.100;5.176;2023-11-18T13:10:35;5.05;;;3.20;;
36411;SDS011;22445;52.100;5.176;2023-11-18T13:13:01;3.85;;;2.13;;
36411;SDS011;22445;52.100;5.176;2023-11-18T13:15:27;6.88;;;2.30;;
36411;SDS011;22445;52.100;5.176;2023-11-18T13:18:05;5.30;;;2.42;;
36411;SDS011;22445;52.100;5.176;2023-11-18T13:20:32;2.60;;;1.38;;
36411;SDS011;22445;52.100;5.176;2023-11-18T13:23:01;9.40;;;3.05;;
36411;SDS011;22445;52.100;5.176;2023-11-18T13:25:35;6.47;;;3.17;;
36411;SDS011;22445;52.100;5.176;2023-11-18T13:28:04;7.20;;;4.00;;
36411;SDS011;22445;52.100;5.176;2023-11-18T13:30:30;2.03;;;1.63;;
36411;SDS011;22445;52.100;5.176;2023-11-18T13:32:56;2.45;;;1.70;;
36411;SDS011;22445;52.100;5.176;2023-11-18T13:35:22;5.82;;;3.13;;
36411;SDS011;22445;52.100;5.176;2023-11-18T13:37:49;4.32;;;2.35;;
36411;SDS011;22445;52.100;5.176;2023-11-18T13:40:15;2.63;;;2.05;;
36411;SDS011;22445;52.100;5.176;2023-11-18T13:42:44;6.65;;;1.33;;
36411;SDS011;22445;52.100;5.176;2023-11-18T13:45:12;1.80;;;1.30;;
36411;SDS011;22445;52.100;5.176;2023-11-18T13:47:41;3.17;;;1.65;;
36411;SDS011;22445;52.100;5.176;2023-11-18T13:50:13;2.10;;;1.38;;
36411;SDS011;22445;52.100;5.176;2023-11-18T13:52:39;3.30;;;2.03;;
36411;SDS011;22445;52.100;5.176;2023-11-18T13:55:05;5.13;;;2.95;;
36411;SDS011;22445;52.100;5.176;2023-11-18T13:57:32;4.13;;;2.35;;
36411;SDS011;22445;52.100;5.176;2023-11-18T13:59:57;3.65;;;1.20;;
36411;SDS011;22445;52.100;5.176;2023-11-18T14:02:24;7.53;;;2.60;;
36411;SDS011;22445;52.100;5.176;2023-11-18T14:04:50;4.03;;;2.03;;
36411;SDS011;22445;52.100;5.176;2023-11-18T14:07:16;2.17;;;0.65;;
36411;SDS011;22445;52.100;5.176;2023-11-18T14:09:45;5.28;;;1.42;;
36411;SDS011;22445;52.100;5.176;2023-11-18T14:12:11;2.50;;;1.50;;
36411;SDS011;22445;52.100;5.176;2023-11-18T14:14:38;6.07;;;1.67;;
36411;SDS011;22445;52.100;5.176;2023-11-18T14:17:05;2.63;;;1.55;;
36411;SDS011;22445;52.100;5.176;2023-11-18T14:19:35;4.15;;;2.75;;
36411;SDS011;22445;52.100;5.176;2023-11-18T14:22:02;1.23;;;0.98;;
36411;SDS011;22445;52.100;5.176;2023-11-18T14:24:34;1.77;;;1.13;;
36411;SDS011;22445;52.100;5.176;2023-11-18T14:27:00;3.15;;;1.80;;
36411;SDS011;22445;52.100;5.176;2023-11-18T14:29:26;2.53;;;1.33;;
36411;SDS011;22445;52.100;5.176;2023-11-18T14:31:52;2.13;;;1.40;;
36411;SDS011;22445;52.100;5.176;2023-11-18T14:34:19;1.85;;;1.08;;
36411;SDS011;22445;52.100;5.176;2023-11-18T14:36:44;1.77;;;0.93;;
36411;SDS011;22445;52.100;5.176;2023-11-18T14:39:10;1.60;;;1.38;;
36411;SDS011;22445;52.100;5.176;2023-11-18T14:41:39;2.40;;;1.67;;
36411;SDS011;22445;52.100;5.176;2023-11-18T14:44:05;1.70;;;1.35;;
36411;SDS011;22445;52.100;5.176;2023-11-18T14:46:34;2.10;;;1.15;;
36411;SDS011;22445;52.100;5.176;2023-11-18T14:49:00;1.50;;;0.80;;
36411;SDS011;22445;52.100;5.176;2023-11-18T14:51:26;2.10;;;1.02;;
36411;SDS011;22445;52.100;5.176;2023-11-18T14:53:51;3.15;;;1.90;;
36411;SDS011;22445;52.100;5.176;2023-11-18T14:56:17;1.48;;;0.90;;
36411;SDS011;22445;52.100;5.176;2023-11-18T14:58:43;2.42;;;1.95;;
36411;SDS011;22445;52.100;5.176;2023-11-18T15:01:14;1.35;;;1.17;;
36411;SDS011;22445;52.100;5.176;2023-11-18T15:03:40;1.02;;;0.70;;
36411;SDS011;22445;52.100;5.176;2023-11-18T15:06:06;1.05;;;0.45;;
36411;SDS011;22445;52.100;5.176;2023-11-18T15:08:32;1.33;;;0.82;;
36411;SDS011;22445;52.100;5.176;2023-11-18T15:10:58;1.20;;;0.98;;
36411;SDS011;22445;52.100;5.176;2023-11-18T15:13:24;1.20;;;0.80;;
36411;SDS011;22445;52.100;5.176;2023-11-18T15:15:50;1.30;;;1.00;;
36411;SDS011;22445;52.100;5.176;2023-11-18T15:18:15;3.17;;;1.05;;